Time;durP1;ratioP1;P1;durP2;ratioP2;P2;SDS_P1;SDS_P2;PMS_P1;PMS_P2;Temp;Humidity;BMP_temperature;BMP_pressure;BME280_temperature;BME280_humidity;BME280_pressure;Samples;Min_cycle;Max_cycle;Signal;HPM_P1;HPM_P2
2024/02/07 00:00:47;;;;;;;;;;;;;;;;;;5026530;28;20376;-55
2024/02/07 00:03:13;;;;;;;;;;;;;;;;;;5029892;28;19952;-55
2024/02/07 00:05:39;;;;;;;;;;;;;;;;;;5023933;28;19917;-55
2024/02/07 00:08:05;;;;;;;;;;;;;;;;;;5028977;28;19952;-55
2024/02/07 00:10:31;;;;;;;;;;;;;;;;;;5027431;28;19956;-55
2024/02/07 00:12:58;;;;;;;;;;;;;;;;;;5020868;28;20306;-55
2024/02/07 00:15:24;;;;;;;;;;;;;;;;;;5028041;28;20397;-55
2024/02/07 00:17:50;;;;;;;;;;;;;;;;;;5029955;28;19956;-54
2024/02/07 00:20:16;;;;;;;;;;;;;;;;;;5030670;28;19955;-55
2024/02/07 00:22:42;;;;;;;;;;;;;;;;;;5030299;28;20169;-54
2024/02/07 00:25:08;;;;;;;;;;;;;;;;;;5029558;28;19958;-55
2024/02/07 00:27:34;;;;;;;;;;;;;;;;;;5029396;28;20349;-54
2024/02/07 00:29:59;;;;;;;;;;;;;;;;;;5029016;28;20012;-54
2024/02/07 00:32:25;;;;;;;;;;;;;;;;;;5030578;28;19919;-54
2024/02/07 00:34:51;;;;;;;;;;;;;;;;;;5029522;28;19940;-55
2024/02/07 00:37:17;;;;;;;;;;;;;;;;;;5030002;28;20364;-55
2024/02/07 00:39:44;;;;;;;;;;;;;;;;;;5029922;28;20390;-55
2024/02/07 00:42:10;;;;;;;;;;;;;;;;;;5028322;28;19925;-55
2024/02/07 00:44:36;;;;;;;;;;;;;;;;;;5029887;28;19924;-51
2024/02/07 00:47:02;;;;;;;;;;;;;;;;;;5031726;28;19905;-50
2024/02/07 00:49:28;;;;;;;;;;;;;;;;;;5030743;28;19964;-51
2024/02/07 00:51:53;;;;;;;;;;;;;;;;;;5026988;28;19945;-50
2024/02/07 00:54:21;;;;;;;;;;;;;;;;;;5032230;28;19956;-51
2024/02/07 00:56:47;;;;;;;;;;;;;;;;;;5029745;28;19909;-51
2024/02/07 00:59:13;;;;;;;;;;;;;;;;;;5029480;28;19905;-50
2024/02/07 01:01:39;;;;;;;;;;;;;;;;;;5030166;28;20613;-51
2024/02/07 01:04:05;;;;;;;;;;;;;;;;;;5029246;28;20011;-53
2024/02/07 01:06:31;;;;;;;;;;;;;;;;;;5015476;28;19956;-51
2024/02/07 01:08:57;;;;;;;;;;;;;;;;;;5026521;28;19944;-51
2024/02/07 01:11:23;;;;;;;;;;;;;;;;;;5029184;28;20010;-51
2024/02/07 01:13:49;;;;;;;;;;;;;;;;;;5037349;28;20411;-51
2024/02/07 01:16:15;;;;;;;;;;;;;;;;;;5029392;28;20369;-52
2024/02/07 01:18:41;;;;;;;;;;;;;;;;;;5029445;28;19971;-50
2024/02/07 01:21:07;;;;;;;;;;;;;;;;;;5031396;28;19956;-50
2024/02/07 01:23:32;;;;;;;;;;;;;;;;;;5029132;28;20030;-50
2024/02/07 01:25:59;;;;;;;;;;;;;;;;;;5020571;28;20079;-52
2024/02/07 01:28:25;;;;;;;;;;;;;;;;;;5026232;28;20066;-50
2024/02/07 01:30:51;;;;;;;;;;;;;;;;;;5029725;28;20233;-52
2024/02/07 01:33:17;;;;;;;;;;;;;;;;;;5023407;28;20396;-54
2024/02/07 01:35:43;;;;;;;;;;;;;;;;;;5027466;28;20354;-51
2024/02/07 01:38:12;;;;;;;;;;;;;;;;;;5016885;28;19921;-51
2024/02/07 01:40:42;;;;;;;;;;;;;;;;;;5027824;28;21609;-51
2024/02/07 01:43:08;;;;;;;;;;;;;;;;;;5028716;28;19923;-50
2024/02/07 01:45:33;;;;;;;;;;;;;;;;;;5021556;28;19996;-50
2024/02/07 01:47:59;;;;;;;;;;;;;;;;;;5028679;28;20568;-52
2024/02/07 01:50:25;;;;;;;;;;;;;;;;;;5027917;28;19955;-52
2024/02/07 01:52:52;;;;;;;;;;;;;;;;;;5023771;28;19959;-51
2024/02/07 01:55:18;;;;;;;;;;;;;;;;;;5027568;28;19913;-51
2024/02/07 01:57:44;;;;;;;;;;;;;;;;;;5026643;28;19940;-52
2024/02/07 02:00:10;;;;;;;;;;;;;;;;;;5028891;28;19979;-51
2024/02/07 02:02:36;;;;;;;;;;;;;;;;;;5025216;28;19921;-51
2024/02/07 02:05:03;;;;;;;;;;;;;;;;;;5027284;28;20004;-51
2024/02/07 02:07:28;;;;;;;;;;;;;;;;;;5021962;28;19913;-50
2024/02/07 02:09:54;;;;;;;;;;;;;;;;;;5033176;28;20047;-55
2024/02/07 02:12:21;;;;;;;;;;;;;;;;;;5028241;28;20287;-52
2024/02/07 02:14:47;;;;;;;;;;;;;;;;;;5034625;28;20269;-50
2024/02/07 02:17:12;;;;;;;;;;;;;;;;;;5026656;28;19983;-50
2024/02/07 02:19:38;;;;;;;;;;;;;;;;;;5027952;28;19976;-51
2024/02/07 02:22:04;;;;;;;;;;;;;;;;;;5031559;28;19994;-53
2024/02/07 02:24:30;;;;;;;;;;;;;;;;;;5033678;28;20017;-53
2024/02/07 02:26:57;;;;;;;;;;;;;;;;;;5031884;28;20333;-53
2024/02/07 02:29:32;;;;;;;;;;;;;;;;;;5034515;28;20256;-53
2024/02/07 02:31:58;;;;;;;;;;;;;;;;;;5028760;28;19962;-51
2024/02/07 02:34:24;;;;;;;;;;;;;;;;;;5024641;28;19959;-51
2024/02/07 02:36:50;;;;;;;;;;;;;;;;;;5029222;28;19956;-51
2024/02/07 02:39:17;;;;;;;;;;;;;;;;;;5024467;28;20318;-51
2024/02/07 02:41:42;;;;;;;;;;;;;;;;;;5015072;28;20020;-52
2024/02/07 02:44:08;;;;;;;;;;;;;;;;;;5024805;28;20059;-52
2024/02/07 02:46:34;;;;;;;;;;;;;;;;;;5022220;28;19952;-51
2024/02/07 02:49:00;;;;;;;;;;;;;;;;;;5021341;28;19916;-52
2024/02/07 02:51:26;;;;;;;;;;;;;;;;;;5023656;28;20376;-51
2024/02/07 02:53:52;;;;;;;;;;;;;;;;;;5023913;28;20062;-52
2024/02/07 02:56:19;;;;;;;;;;;;;;;;;;5020941;28;20007;-51
2024/02/07 02:58:44;;;;;;;;;;;;;;;;;;5016689;28;19909;-52
2024/02/07 03:01:10;;;;;;;;;;;;;;;;;;5019840;28;19949;-53
2024/02/07 03:03:37;;;;;;;;;;;;;;;;;;5022398;28;19963;-51
2024/02/07 03:06:07;;;;;;;;;;;;;;;;;;5019975;28;20346;-55
2024/02/07 03:08:39;;;;;;;;;;;;;;;;;;5022857;28;19925;-55
2024/02/07 03:11:05;;;;;;;;;;;;;;;;;;5023396;28;19915;-55
2024/02/07 03:13:31;;;;;;;;;;;;;;;;;;5019097;28;19909;-54
2024/02/07 03:15:57;;;;;;;;;;;;;;;;;;5017119;28;19913;-55
2024/02/07 03:18:23;;;;;;;;;;;;;;;;;;5025721;28;20293;-55
2024/02/07 03:20:50;;;;;;;;;;;;;;;;;;5024272;28;20020;-55
2024/02/07 03:23:17;;;;;;;;;;;;;;;;;;5020472;28;19955;-54
2024/02/07 03:25:43;;;;;;;;;;;;;;;;;;5018339;28;19920;-55
2024/02/07 03:28:14;;;;;;;;;;;;;;;;;;5016878;28;19917;-55
2024/02/07 03:30:41;;;;;;;;;;;;;;;;;;5021254;28;20312;-54
2024/02/07 03:33:07;;;;;;;;;;;;;;;;;;5018160;28;19949;-54
2024/02/07 03:35:32;;;;;;;;;;;;;;;;;;5020136;28;20011;-54
2024/02/07 03:37:58;;;;;;;;;;;;;;;;;;5020045;28;19998;-54
2024/02/07 03:40:24;;;;;;;;;;;;;;;;;;5011440;28;19915;-54
2024/02/07 03:42:51;;;;;;;;;;;;;;;;;;5023217;28;19956;-54
2024/02/07 03:45:16;;;;;;;;;;;;;;;;;;5014111;28;20437;-54
2024/02/07 03:47:43;;;;;;;;;;;;;;;;;;5024272;28;20043;-54
2024/02/07 03:50:12;;;;;;;;;;;;;;;;;;5028044;28;19968;-54
2024/02/07 03:52:38;;;;;;;;;;;;;;;;;;5027758;28;19913;-54
2024/02/07 03:55:04;;;;;;;;;;;;;;;;;;5025162;28;20345;-54
2024/02/07 03:57:30;;;;;;;;;;;;;;;;;;5026609;28;19952;-54
2024/02/07 03:59:56;;;;;;;;;;;;;;;;;;5024947;28;20246;-55
2024/02/07 04:02:22;;;;;;;;;;;;;;;;;;5027000;28;19993;-54
2024/02/07 04:04:49;;;;;;;;;;;;;;;;;;5026302;28;19979;-54
2024/02/07 04:07:15;;;;;;;;;;;;;;;;;;5025983;28;19909;-54
2024/02/07 04:09:41;;;;;;;;;;;;;;;;;;5025313;28;20003;-54
2024/02/07 05:17:14;;;;;;;;;;;;;;;;;;5027450;28;19932;-59
2024/02/07 05:19:40;;;;;;;;;;;;;;;;;;5028732;28;19921;-57
2024/02/07 05:22:06;;;;;;;;;;;;;;;;;;5029121;28;19967;-58
2024/02/07 05:24:32;;;;;;;;;;;;;;;;;;5027642;28;19963;-58
2024/02/07 05:26:58;;;;;;;;;;;;;;;;;;5029228;28;19944;-59
2024/02/07 05:29:24;;;;;;;;;;;;;;;;;;5028388;28;20013;-57
2024/02/07 05:31:50;;;;;;;;;;;;;;;;;;5028655;28;19986;-59
2024/02/07 05:34:16;;;;;;;;;;;;;;;;;;5033820;28;19944;-58
2024/02/07 05:36:42;;;;;;;;;;;;;;;;;;5025705;28;19928;-58
2024/02/07 05:39:08;;;;;;;;;;;;;;;;;;5028076;28;19909;-57
2024/02/07 05:41:34;;;;;;;;;;;;;;;;;;5030391;28;20537;-58
2024/02/07 05:44:00;;;;;;;;;;;;;;;;;;5034724;28;20444;-59
2024/02/07 05:46:26;;;;;;;;;;;;;;;;;;5027400;28;19917;-57
2024/02/07 05:48:52;;;;;;;;;;;;;;;;;;5027839;28;19913;-58
2024/02/07 05:51:18;;;;;;;;;;;;;;;;;;5026369;28;19917;-59
2024/02/07 05:53:44;;;;;;;;;;;;;;;;;;5026692;28;20016;-60
2024/02/07 05:56:10;;;;;;;;;;;;;;;;;;5026912;28;19913;-60
2024/02/07 05:58:37;;;;;;;;;;;;;;;;;;5025132;28;20417;-59
2024/02/07 06:01:03;;;;;;;;;;;;;;;;;;5023358;28;19949;-59
2024/02/07 06:03:29;;;;;;;;;;;;;;;;;;5023867;28;19955;-60
2024/02/07 06:05:55;;;;;;;;;;;;;;;;;;5021507;28;19913;-59
2024/02/07 06:08:21;;;;;;;;;;;;;;;;;;5015534;28;19909;-59
2024/02/07 06:10:47;;;;;;;;;;;;;;;;;;5025085;28;19964;-59
2024/02/07 06:13:13;;;;;;;;;;;;;;;;;;5027132;28;19913;-58
2024/02/07 06:15:39;;;;;;;;;;;;;;;;;;5025065;28;19967;-59
2024/02/07 06:18:05;;;;;;;;;;;;;;;;;;5025797;28;20421;-59
2024/02/07 06:20:31;;;;;;;;;;;;;;;;;;5028816;28;20046;-59
2024/02/07 06:22:57;;;;;;;;;;;;;;;;;;5030185;28;19948;-58
2024/02/07 06:25:23;;;;;;;;;;;;;;;;;;5024353;28;19948;-60
2024/02/07 06:27:49;;;;;;;;;;;;;;;;;;5022991;28;19960;-60
2024/02/07 06:30:15;;;;;;;;;;;;;;;;;;5018712;28;20007;-58
2024/02/07 06:32:41;;;;;;;;;;;;;;;;;;5017573;28;19933;-59
2024/02/07 06:35:07;;;;;;;;;;;;;;;;;;5026346;28;20426;-54
2024/02/07 06:37:32;;;;;;;;;;;;;;;;;;5024900;28;20391;-54
2024/02/07 06:39:58;;;;;;;;;;;;;;;;;;5020471;28;20055;-54
2024/02/07 06:42:24;;;;;;;;;;;;;;;;;;5020382;28;19910;-54
2024/02/07 06:44:50;;;;;;;;;;;;;;;;;;5025455;28;19967;-54
2024/02/07 06:47:16;;;;;;;;;;;;;;;;;;5026441;28;19955;-54
2024/02/07 06:49:42;;;;;;;;;;;;;;;;;;5012662;28;19956;-54
2024/02/07 06:52:08;;;;;;;;;;;;;;;;;;5021660;28;20309;-54
2024/02/07 06:54:34;;;;;;;;;;;;;;;;;;5025500;28;20447;-53
2024/02/07 06:57:00;;;;;;;;;;;;;;;;;;5021013;28;19951;-53
2024/02/07 06:59:26;;;;;;;;;;;;;;;;;;5020905;28;20063;-54
2024/02/07 07:01:52;;;;;;;;;;;;;;;;;;5016318;28;19971;-53
2024/02/07 07:04:18;;;;;;;;;;;;;;;;;;5018111;28;19963;-53
2024/02/07 07:06:44;;;;;;;;;;;;;;;;;;5023669;28;19944;-53
2024/02/07 07:09:10;;;;;;;;;;;;;;;;;;5024587;28;20392;-53
2024/02/07 07:11:35;;;;;;;;;;;;;;;;;;5025563;28;19951;-53
2024/02/07 07:14:01;;;;;;;;;;;;;;;;;;5027886;28;20026;-53
2024/02/07 07:16:27;;;;;;;;;;;;;;;;;;5023861;28;19947;-53
2024/02/07 07:18:53;;;;;;;;;;;;;;;;;;5020660;28;19951;-53
2024/02/07 07:21:19;;;;;;;;;;;;;;;;;;5023830;28;19970;-53
2024/02/07 07:23:45;;;;;;;;;;;;;;;;;;5025539;28;20392;-53
2024/02/07 07:26:11;;;;;;;;;;;;;;;;;;5027404;28;19987;-53
2024/02/07 07:28:37;;;;;;;;;;;;;;;;;;5027446;28;19944;-53
2024/02/07 07:31:03;;;;;;;;;;;;;;;;;;5028051;28;19959;-53
2024/02/07 07:33:29;;;;;;;;;;;;;;;;;;5024009;28;20000;-53
2024/02/07 07:35:55;;;;;;;;;;;;;;;;;;5021625;28;19941;-53
2024/02/07 07:38:21;;;;;;;;;;;;;;;;;;5021556;28;19967;-54
2024/02/07 07:40:47;;;;;;;;;;;;;;;;;;5020884;28;19963;-53
2024/02/07 07:43:12;;;;;;;;;;;;;;;;;;5024562;28;20692;-53
2024/02/07 07:45:38;;;;;;;;;;;;;;;;;;5024472;28;20244;-55
2024/02/07 07:48:04;;;;;;;;;;;;;;;;;;5022423;28;19945;-55
2024/02/07 07:50:31;;;;;;;;;;;;;;;;;;5025567;28;20026;-55
2024/02/07 07:52:56;;;;;;;;;;;;;;;;;;5021919;28;19916;-55
2024/02/07 07:55:22;;;;;;;;;;;;;;;;;;5023363;28;19975;-55
2024/02/07 07:57:48;;;;;;;;;;;;;;;;;;5025380;28;19963;-55
2024/02/07 08:00:14;;;;;;;;;;;;;;;;;;5026949;28;20391;-55
2024/02/07 08:02:40;;;;;;;;;;;;;;;;;;5024884;28;19992;-55
2024/02/07 08:05:06;;;;;;;;;;;;;;;;;;5030140;28;19975;-55
2024/02/07 08:07:32;;;;;;;;;;;;;;;;;;5028675;28;20364;-55
2024/02/07 08:09:58;;;;;;;;;;;;;;;;;;5027051;28;19948;-55
2024/02/07 08:12:24;;;;;;;;;;;;;;;;;;5027218;28;19967;-55
2024/02/07 08:14:50;;;;;;;;;;;;;;;;;;5030256;28;20373;-55
2024/02/07 08:17:18;;;;;;;;;;;;;;;;;;5030492;28;20015;-55
2024/02/07 08:19:44;;;;;;;;;;;;;;;;;;5026724;28;20291;-55
2024/02/07 08:22:10;;;;;;;;;;;;;;;;;;5025640;28;19915;-55
2024/02/07 08:24:36;;;;;;;;;;;;;;;;;;5030283;28;19924;-55
2024/02/07 08:27:02;;;;;;;;;;;;;;;;;;5027309;28;19968;-55
2024/02/07 08:29:29;;;;;;;;;;;;;;;;;;5025610;28;20403;-54
2024/02/07 08:31:56;;;;;;;;;;;;;;;;;;5026261;28;20270;-55
2024/02/07 08:34:22;;;;;;;;;;;;;;;;;;5028736;28;20004;-55
2024/02/07 08:36:48;;;;;;;;;;;;;;;;;;5026661;28;20043;-55
2024/02/07 08:39:14;;;;;;;;;;;;;;;;;;5023528;28;20433;-55
2024/02/07 08:41:43;;;;;;;;;;;;;;;;;;5022704;28;19913;-55
2024/02/07 08:44:09;;;;;;;;;;;;;;;;;;5020672;28;19917;-55
2024/02/07 08:46:35;;;;;;;;;;;;;;;;;;5026463;28;19968;-55
2024/02/07 08:49:01;;;;;;;;;;;;;;;;;;5018023;28;20346;-55
2024/02/07 08:51:26;;;;;;;;;;;;;;;;;;5024487;28;20003;-55
2024/02/07 08:53:52;;;;;;;;;;;;;;;;;;5027935;28;20062;-55
2024/02/07 08:56:18;;;;;;;;;;;;;;;;;;5027552;28;19955;-55
2024/02/07 08:58:44;;;;;;;;;;;;;;;;;;5028331;28;20028;-55
2024/02/07 09:01:11;;;;;;;;;;;;;;;;;;5019558;28;19952;-55
2024/02/07 09:03:37;;;;;;;;;;;;;;;;;;5020115;28;19921;-55
2024/02/07 09:06:03;;;;;;;;;;;;;;;;;;5024417;28;19957;-55
2024/02/07 09:08:29;;;;;;;;;;;;;;;;;;5014718;28;20106;-55
2024/02/07 09:10:57;;;;;;;;;;;;;;;;;;5024339;28;19998;-55
2024/02/07 09:13:23;;;;;;;;;;;;;;;;;;5021778;28;19917;-55
2024/02/07 09:15:49;;;;;;;;;;;;;;;;;;5023252;28;19983;-55
2024/02/07 09:18:15;;;;;;;;;;;;;;;;;;5026118;28;20432;-55
2024/02/07 09:20:41;;;;;;;;;;;;;;;;;;5028055;28;20426;-55
2024/02/07 09:23:07;;;;;;;;;;;;;;;;;;5020382;28;19959;-55
2024/02/07 09:25:33;;;;;;;;;;;;;;;;;;5023854;28;20062;-55
2024/02/07 09:27:59;;;;;;;;;;;;;;;;;;5028239;28;19940;-55
2024/02/07 09:30:25;;;;;;;;;;;;;;;;;;5021042;28;19963;-55
2024/02/07 09:32:50;;;;;;;;;;;;;;;;;;5026903;28;19944;-55
2024/02/07 09:35:16;;;;;;;;;;;;;;;;;;5020375;28;19952;-55
2024/02/07 09:37:42;;;;;;;;;;;;;;;;;;5026894;28;20326;-54
2024/02/07 09:40:08;;;;;;;;;;;;;;;;;;5020574;28;20408;-55
2024/02/07 09:42:37;;;;;;;;;;;;;;;;;;5024278;28;19952;-54
2024/02/07 09:45:03;;;;;;;;;;;;;;;;;;5026155;28;19916;-55
2024/02/07 09:47:29;;;;;;;;;;;;;;;;;;5024123;28;20007;-54
2024/02/07 09:49:55;;;;;;;;;;;;;;;;;;5022987;28;20369;-55
2024/02/07 09:52:21;;;;;;;;;;;;;;;;;;5017598;28;20011;-55
2024/02/07 09:54:47;;;;;;;;;;;;;;;;;;5025256;28;19909;-55
2024/02/07 09:57:13;;;;;;;;;;;;;;;;;;5024994;28;20339;-55
2024/02/07 09:59:39;;;;;;;;;;;;;;;;;;5020522;28;20015;-57
2024/02/07 10:02:05;;;;;;;;;;;;;;;;;;5019684;28;20456;-55
2024/02/07 10:04:31;;;;;;;;;;;;;;;;;;5018924;28;19913;-55
2024/02/07 10:06:57;;;;;;;;;;;;;;;;;;5027041;28;19989;-51
2024/02/07 10:09:23;;;;;;;;;;;;;;;;;;5019580;28;19952;-51
2024/02/07 10:11:48;;;;;;;;;;;;;;;;;;5021214;28;20284;-52
2024/02/07 10:14:14;;;;;;;;;;;;;;;;;;5017227;28;20002;-51
2024/02/07 10:16:40;;;;;;;;;;;;;;;;;;5024402;28;19948;-51
2024/02/07 10:19:06;;;;;;;;;;;;;;;;;;5025186;28;20004;-51
2024/02/07 10:21:33;;;;;;;;;;;;;;;;;;5024004;28;19952;-51
2024/02/07 10:23:59;;;;;;;;;;;;;;;;;;5025166;28;20451;-52
2024/02/07 10:26:25;;;;;;;;;;;;;;;;;;5021353;28;20011;-53
2024/02/07 10:28:50;;;;;;;;;;;;;;;;;;5026474;28;20012;-53
2024/02/07 10:31:17;;;;;;;;;;;;;;;;;;5027079;28;20003;-49
2024/02/07 10:33:47;;;;;;;;;;;;;;;;;;5024486;28;19913;-52
2024/02/07 10:36:14;;;;;;;;;;;;;;;;;;5026224;28;20273;-51
2024/02/07 10:38:40;;;;;;;;;;;;;;;;;;5019837;28;19938;-52
2024/02/07 10:41:06;;;;;;;;;;;;;;;;;;5019567;28;20314;-51
2024/02/07 10:43:36;;;;;;;;;;;;;;;;;;5015822;28;19928;-52
2024/02/07 10:46:02;;;;;;;;;;;;;;;;;;5019258;28;20361;-51
2024/02/07 10:48:28;;;;;;;;;;;;;;;;;;5026394;28;21011;-52
2024/02/07 10:50:54;;;;;;;;;;;;;;;;;;5021510;28;20430;-50
2024/02/07 10:53:20;;;;;;;;;;;;;;;;;;5019793;28;19916;-51
2024/02/07 10:55:46;;;;;;;;;;;;;;;;;;5019987;28;19964;-51
2024/02/07 10:58:14;;;;;;;;;;;;;;;;;;5024901;28;20413;-51
2024/02/07 11:00:40;;;;;;;;;;;;;;;;;;5017854;28;19939;-51
2024/02/07 11:03:06;;;;;;;;;;;;;;;;;;5019912;28;20004;-52
2024/02/07 11:05:31;;;;;;;;;;;;;;;;;;5021811;28;19963;-50
2024/02/07 11:07:57;;;;;;;;;;;;;;;;;;5021417;28;20028;-50
2024/02/07 11:10:23;;;;;;;;;;;;;;;;;;5018490;28;19944;-52
2024/02/07 11:12:49;;;;;;;;;;;;;;;;;;5022314;28;19924;-51
2024/02/07 11:15:15;;;;;;;;;;;;;;;;;;5021137;28;19956;-51
2024/02/07 11:17:41;;;;;;;;;;;;;;;;;;5032478;28;19979;-52
2024/02/07 11:20:07;;;;;;;;;;;;;;;;;;5026329;28;20369;-52
2024/02/07 11:22:33;;;;;;;;;;;;;;;;;;5016065;28;19919;-50
2024/02/07 11:24:59;;;;;;;;;;;;;;;;;;5019956;28;20222;-50
2024/02/07 11:27:25;;;;;;;;;;;;;;;;;;5022457;28;20395;-50
2024/02/07 11:29:51;;;;;;;;;;;;;;;;;;5021869;28;19956;-51
2024/02/07 11:32:17;;;;;;;;;;;;;;;;;;5030316;28;20049;-50
2024/02/07 11:34:43;;;;;;;;;;;;;;;;;;5027510;28;20297;-51
2024/02/07 11:37:09;;;;;;;;;;;;;;;;;;5026427;28;19960;-51
2024/02/07 11:39:35;;;;;;;;;;;;;;;;;;5024565;28;19968;-52
2024/02/07 11:42:01;;;;;;;;;;;;;;;;;;5027439;28;20327;-53
2024/02/07 11:44:26;;;;;;;;;;;;;;;;;;5026948;28;19960;-53
2024/02/07 11:46:54;;;;;;;;;;;;;;;;;;5021759;28;20389;-51
2024/02/07 11:49:20;;;;;;;;;;;;;;;;;;5023347;28;19920;-51
2024/02/07 11:51:46;;;;;;;;;;;;;;;;;;5026585;28;19960;-54
2024/02/07 11:54:12;;;;;;;;;;;;;;;;;;5025272;28;19948;-51
2024/02/07 11:56:38;;;;;;;;;;;;;;;;;;5017240;28;20478;-50
2024/02/07 11:59:05;;;;;;;;;;;;;;;;;;5027705;28;19931;-49
2024/02/07 12:01:31;;;;;;;;;;;;;;;;;;5020267;28;20976;-52
2024/02/07 12:03:57;;;;;;;;;;;;;;;;;;5023287;28;19980;-52
2024/02/07 12:06:23;;;;;;;;;;;;;;;;;;5023110;28;19944;-50
2024/02/07 12:08:49;;;;;;;;;;;;;;;;;;5024923;28;20347;-51
2024/02/07 12:11:15;;;;;;;;;;;;;;;;;;5021692;28;19982;-51
2024/02/07 12:13:41;;;;;;;;;;;;;;;;;;5023732;28;19918;-50
2024/02/07 12:16:07;;;;;;;;;;;;;;;;;;5027855;28;19923;-50
2024/02/07 12:18:33;;;;;;;;;;;;;;;;;;5020652;28;19952;-52
2024/02/07 12:21:00;;;;;;;;;;;;;;;;;;5026324;28;19979;-51
2024/02/07 12:23:26;;;;;;;;;;;;;;;;;;5024936;28;19913;-51
2024/02/07 12:25:52;;;;;;;;;;;;;;;;;;5027414;28;19948;-52
2024/02/07 12:28:18;;;;;;;;;;;;;;;;;;5024619;28;20368;-57
2024/02/07 12:30:44;;;;;;;;;;;;;;;;;;5023432;28;20000;-60
2024/02/07 12:33:10;;;;;;;;;;;;;;;;;;5027806;28;20229;-60
2024/02/07 12:35:36;;;;;;;;;;;;;;;;;;5026116;28;19963;-60
2024/02/07 12:38:01;;;;;;;;;;;;;;;;;;5022513;28;20342;-59
2024/02/07 12:40:30;;;;;;;;;;;;;;;;;;5020521;28;19963;-59
2024/02/07 12:42:56;;;;;;;;;;;;;;;;;;5024864;28;19916;-59
2024/02/07 12:45:22;;;;;;;;;;;;;;;;;;5022511;28;20381;-61
2024/02/07 12:47:48;;;;;;;;;;;;;;;;;;5019169;28;19996;-59
2024/02/07 12:50:14;;;;;;;;;;;;;;;;;;5023919;28;19913;-60
2024/02/07 12:52:39;;;;;;;;;;;;;;;;;;5024525;28;20041;-61
2024/02/07 12:55:05;;;;;;;;;;;;;;;;;;5024350;28;19955;-59
2024/02/07 12:57:31;;;;;;;;;;;;;;;;;;5022754;28;19963;-60
2024/02/07 12:59:57;;;;;;;;;;;;;;;;;;5022444;28;19914;-61
2024/02/07 13:02:23;;;;;;;;;;;;;;;;;;5022365;28;19920;-61
2024/02/07 13:04:49;;;;;;;;;;;;;;;;;;5023181;28;20013;-61
2024/02/07 13:07:15;;;;;;;;;;;;;;;;;;5024489;28;20058;-61
2024/02/07 13:09:42;;;;;;;;;;;;;;;;;;5023661;28;19913;-61
2024/02/07 13:12:07;;;;;;;;;;;;;;;;;;5020922;28;20027;-60
2024/02/07 13:14:34;;;;;;;;;;;;;;;;;;5026510;28;20007;-60
2024/02/07 13:16:59;;;;;;;;;;;;;;;;;;5028648;28;19920;-60
2024/02/07 13:19:27;;;;;;;;;;;;;;;;;;5025494;28;19948;-62
2024/02/07 13:21:53;;;;;;;;;;;;;;;;;;5024610;28;19919;-60
2024/02/07 13:24:19;;;;;;;;;;;;;;;;;;5021697;28;20246;-59
2024/02/07 13:26:45;;;;;;;;;;;;;;;;;;5023695;28;20341;-60
2024/02/07 13:29:11;;;;;;;;;;;;;;;;;;5020075;28;20543;-60
2024/02/07 13:31:37;;;;;;;;;;;;;;;;;;5021124;28;19951;-60
2024/02/07 13:34:03;;;;;;;;;;;;;;;;;;5020250;28;20456;-56
2024/02/07 13:36:32;;;;;;;;;;;;;;;;;;5023774;28;19967;-58
2024/02/07 13:38:58;;;;;;;;;;;;;;;;;;5027811;28;19912;-55
2024/02/07 13:41:24;;;;;;;;;;;;;;;;;;5020935;28;19990;-54
2024/02/07 13:43:50;;;;;;;;;;;;;;;;;;5022938;28;19921;-54
2024/02/07 13:46:16;;;;;;;;;;;;;;;;;;5021689;28;20070;-57
2024/02/07 13:48:42;;;;;;;;;;;;;;;;;;5024655;28;20427;-57
2024/02/07 13:51:08;;;;;;;;;;;;;;;;;;5024004;28;20399;-57
2024/02/07 13:53:33;;;;;;;;;;;;;;;;;;5024633;28;20558;-57
2024/02/07 13:55:59;;;;;;;;;;;;;;;;;;5020409;28;19952;-57
2024/02/07 13:58:25;;;;;;;;;;;;;;;;;;5013955;28;19956;-57
2024/02/07 14:00:51;;;;;;;;;;;;;;;;;;5018773;28;20408;-57
2024/02/07 14:03:17;;;;;;;;;;;;;;;;;;5020147;28;20032;-57
2024/02/07 14:05:43;;;;;;;;;;;;;;;;;;5022795;28;19995;-57
2024/02/07 14:08:09;;;;;;;;;;;;;;;;;;5023337;28;19971;-57
2024/02/07 14:10:35;;;;;;;;;;;;;;;;;;5022183;28;20377;-57
2024/02/07 14:13:01;;;;;;;;;;;;;;;;;;5018665;28;19956;-57
2024/02/07 14:15:27;;;;;;;;;;;;;;;;;;5027503;28;19948;-55
2024/02/07 14:17:53;;;;;;;;;;;;;;;;;;5025757;28;19962;-55
2024/02/07 14:20:19;;;;;;;;;;;;;;;;;;5025994;28;19917;-57
2024/02/07 14:22:45;;;;;;;;;;;;;;;;;;5022653;28;19909;-57
2024/02/07 14:25:11;;;;;;;;;;;;;;;;;;5022108;28;19963;-57
2024/02/07 14:27:37;;;;;;;;;;;;;;;;;;5025901;28;19960;-57
2024/02/07 14:30:03;;;;;;;;;;;;;;;;;;5021166;28;20304;-57
2024/02/07 14:32:29;;;;;;;;;;;;;;;;;;5023749;28;20361;-57
2024/02/07 14:34:54;;;;;;;;;;;;;;;;;;5024186;28;19963;-57
2024/02/07 14:37:21;;;;;;;;;;;;;;;;;;5027014;28;20342;-57
2024/02/07 14:39:46;;;;;;;;;;;;;;;;;;5024638;28;20421;-55
2024/02/07 14:42:12;;;;;;;;;;;;;;;;;;5021623;28;19971;-55
2024/02/07 14:44:38;;;;;;;;;;;;;;;;;;5024391;28;20026;-55
2024/02/07 14:47:04;;;;;;;;;;;;;;;;;;5018577;28;19967;-56
2024/02/07 14:49:31;;;;;;;;;;;;;;;;;;5024468;28;20013;-61
2024/02/07 14:51:57;;;;;;;;;;;;;;;;;;5019618;28;19931;-62
2024/02/07 14:54:23;;;;;;;;;;;;;;;;;;5013269;28;19941;-61
2024/02/07 14:56:50;;;;;;;;;;;;;;;;;;5025030;28;19956;-61
2024/02/07 14:59:16;;;;;;;;;;;;;;;;;;5025415;28;19975;-58
2024/02/07 15:01:42;;;;;;;;;;;;;;;;;;5019842;28;19989;-61
2024/02/07 15:04:08;;;;;;;;;;;;;;;;;;5019857;28;19954;-63
2024/02/07 15:06:34;;;;;;;;;;;;;;;;;;5023828;28;20353;-63
2024/02/07 15:09:00;;;;;;;;;;;;;;;;;;5019898;28;19993;-57
2024/02/07 15:11:26;;;;;;;;;;;;;;;;;;5024284;28;20325;-61
2024/02/07 15:13:52;;;;;;;;;;;;;;;;;;5019936;28;19951;-61
2024/02/07 15:16:17;;;;;;;;;;;;;;;;;;5021498;28;19952;-59
2024/02/07 15:18:43;;;;;;;;;;;;;;;;;;5020518;28;19991;-60
2024/02/07 15:21:09;;;;;;;;;;;;;;;;;;5025907;28;20014;-61
2024/02/07 15:23:35;;;;;;;;;;;;;;;;;;5024726;28;19960;-60
2024/02/07 15:26:01;;;;;;;;;;;;;;;;;;5030833;28;20352;-59
2024/02/07 15:28:27;;;;;;;;;;;;;;;;;;5027900;28;19955;-61
2024/02/07 15:30:54;;;;;;;;;;;;;;;;;;5024497;28;20052;-61
2024/02/07 15:33:21;;;;;;;;;;;;;;;;;;5025493;28;20392;-62
2024/02/07 15:35:47;;;;;;;;;;;;;;;;;;5021236;28;19909;-59
2024/02/07 15:38:13;;;;;;;;;;;;;;;;;;5032469;28;20466;-61
2024/02/07 15:40:39;;;;;;;;;;;;;;;;;;5022254;28;20372;-61
2024/02/07 15:43:05;;;;;;;;;;;;;;;;;;5020037;28;19933;-59
2024/02/07 15:45:31;;;;;;;;;;;;;;;;;;5026139;28;19958;-56
2024/02/07 15:47:57;;;;;;;;;;;;;;;;;;5028543;28;19951;-61
2024/02/07 15:50:23;;;;;;;;;;;;;;;;;;5027241;28;19968;-61
2024/02/07 15:52:49;;;;;;;;;;;;;;;;;;5021531;28;20241;-61
2024/02/07 15:55:15;;;;;;;;;;;;;;;;;;5023728;28;19956;-61
2024/02/07 15:57:41;;;;;;;;;;;;;;;;;;5024051;28;20401;-61
2024/02/07 16:00:07;;;;;;;;;;;;;;;;;;5027030;28;20013;-55
2024/02/07 16:02:33;;;;;;;;;;;;;;;;;;5021925;28;19940;-55
2024/02/07 16:04:59;;;;;;;;;;;;;;;;;;5026615;28;19949;-55
2024/02/07 16:07:25;;;;;;;;;;;;;;;;;;5023008;28;19975;-55
2024/02/07 16:09:51;;;;;;;;;;;;;;;;;;5023748;28;20617;-55
2024/02/07 16:12:17;;;;;;;;;;;;;;;;;;5022100;28;20419;-55
2024/02/07 16:14:42;;;;;;;;;;;;;;;;;;5027382;28;19952;-55
2024/02/07 16:17:08;;;;;;;;;;;;;;;;;;5024219;28;20455;-55
2024/02/07 16:19:34;;;;;;;;;;;;;;;;;;5023342;28;20015;-55
2024/02/07 16:22:00;;;;;;;;;;;;;;;;;;5026225;28;19948;-54
2024/02/07 16:24:26;;;;;;;;;;;;;;;;;;5018008;28;19917;-55
2024/02/07 16:26:52;;;;;;;;;;;;;;;;;;5027519;28;19959;-55
2024/02/07 16:29:20;;;;;;;;;;;;;;;;;;5028209;28;20023;-55
2024/02/07 16:31:46;;;;;;;;;;;;;;;;;;5030799;28;19913;-55
2024/02/07 16:34:12;;;;;;;;;;;;;;;;;;5031047;28;19971;-55
2024/02/07 16:36:38;;;;;;;;;;;;;;;;;;5030986;28;20219;-54
2024/02/07 16:39:04;;;;;;;;;;;;;;;;;;5030715;28;20416;-57
2024/02/07 16:41:30;;;;;;;;;;;;;;;;;;5030796;28;19952;-57
2024/02/07 16:43:56;;;;;;;;;;;;;;;;;;5029655;28;20013;-57
2024/02/07 16:46:22;;;;;;;;;;;;;;;;;;5029553;28;19913;-56
2024/02/07 16:48:48;;;;;;;;;;;;;;;;;;5031021;28;20000;-57
2024/02/07 16:51:14;;;;;;;;;;;;;;;;;;5030291;28;19999;-57
2024/02/07 16:53:40;;;;;;;;;;;;;;;;;;5023771;28;20215;-57
2024/02/07 16:56:06;;;;;;;;;;;;;;;;;;5024736;28;19913;-57
2024/02/07 16:58:32;;;;;;;;;;;;;;;;;;5026939;28;19943;-55
2024/02/07 17:00:58;;;;;;;;;;;;;;;;;;5029379;28;20372;-55
2024/02/07 17:03:24;;;;;;;;;;;;;;;;;;5029044;28;19983;-55
2024/02/07 17:05:50;;;;;;;;;;;;;;;;;;5025993;28;20012;-55
2024/02/07 17:08:16;;;;;;;;;;;;;;;;;;5028927;28;19952;-53
2024/02/07 17:10:42;;;;;;;;;;;;;;;;;;5022960;28;20383;-54
2024/02/07 17:13:08;;;;;;;;;;;;;;;;;;5029895;28;20093;-53
2024/02/07 17:15:34;;;;;;;;;;;;;;;;;;5025803;28;19909;-53
2024/02/07 17:18:00;;;;;;;;;;;;;;;;;;5026515;28;20339;-53
2024/02/07 17:20:26;;;;;;;;;;;;;;;;;;5033962;28;20428;-53
2024/02/07 17:22:52;;;;;;;;;;;;;;;;;;5025800;28;20016;-53
2024/02/07 17:25:18;;;;;;;;;;;;;;;;;;5024960;28;19999;-53
2024/02/07 17:27:43;;;;;;;;;;;;;;;;;;5022992;28;20404;-53
2024/02/07 17:30:09;;;;;;;;;;;;;;;;;;5021921;28;19921;-53
2024/02/07 17:32:36;;;;;;;;;;;;;;;;;;5021810;28;19920;-52
2024/02/07 17:35:02;;;;;;;;;;;;;;;;;;5026912;28;19990;-53
2024/02/07 17:37:28;;;;;;;;;;;;;;;;;;5026150;28;20360;-53
2024/02/07 17:39:54;;;;;;;;;;;;;;;;;;5017699;28;19999;-53
2024/02/07 17:42:20;;;;;;;;;;;;;;;;;;5028992;28;20002;-53